sensor_id;sensor_type;location;lat;lon;timestamp;P1;durP1;ratioP1;P2;durP2;ratioP2
1344;SDS011;15375;48.540;9.268;2023-05-09T00:01:52;28.80;;;21.30;;
1344;SDS011;15375;48.540;9.268;2023-05-09T00:04:18;27.77;;;23.40;;
1344;SDS011;15375;48.540;9.268;2023-05-09T00:06:43;26.43;;;21.37;;
1344;SDS011;15375;48.540;9.268;2023-05-09T00:09:09;34.33;;;23.30;;
1344;SDS011;15375;48.540;9.268;2023-05-09T00:11:35;23.00;;;20.17;;
1344;SDS011;15375;48.540;9.268;2023-05-09T00:14:00;34.53;;;24.90;;
1344;SDS011;15375;48.540;9.268;2023-05-09T00:16:27;28.43;;;24.97;;
1344;SDS011;15375;48.540;9.268;2023-05-09T00:18:52;24.20;;;21.60;;
1344;SDS011;15375;48.540;9.268;2023-05-09T00:21:18;23.63;;;19.80;;
1344;SDS011;15375;48.540;9.268;2023-05-09T00:23:43;25.17;;;21.43;;
1344;SDS011;15375;48.540;9.268;2023-05-09T00:26:09;25.53;;;20.43;;
1344;SDS011;15375;48.540;9.268;2023-05-09T00:28:34;29.60;;;22.40;;
1344;SDS011;15375;48.540;9.268;2023-05-09T00:31:00;32.23;;;24.40;;
1344;SDS011;15375;48.540;9.268;2023-05-09T00:33:25;29.90;;;23.87;;
1344;SDS011;15375;48.540;9.268;2023-05-09T00:35:51;32.03;;;23.23;;
1344;SDS011;15375;48.540;9.268;2023-05-09T00:38:18;27.93;;;22.97;;
1344;SDS011;15375;48.540;9.268;2023-05-09T00:40:43;29.60;;;22.07;;
1344;SDS011;15375;48.540;9.268;2023-05-09T00:43:08;29.37;;;23.43;;
1344;SDS011;15375;48.540;9.268;2023-05-09T00:45:34;35.70;;;26.30;;
1344;SDS011;15375;48.540;9.268;2023-05-09T00:47:59;29.90;;;23.00;;
1344;SDS011;15375;48.540;9.268;2023-05-09T00:50:25;27.63;;;22.17;;
1344;SDS011;15375;48.540;9.268;2023-05-09T00:52:50;28.57;;;22.97;;
1344;SDS011;15375;48.540;9.268;2023-05-09T00:55:16;23.53;;;19.20;;
1344;SDS011;15375;48.540;9.268;2023-05-09T00:57:41;25.43;;;20.27;;
1344;SDS011;15375;48.540;9.268;2023-05-09T01:00:08;27.37;;;22.00;;
1344;SDS011;15375;48.540;9.268;2023-05-09T01:02:41;25.07;;;20.87;;
1344;SDS011;15375;48.540;9.268;2023-05-09T01:05:08;29.20;;;22.70;;
1344;SDS011;15375;48.540;9.268;2023-05-09T01:10:34;23.00;;;18.80;;
1344;SDS011;15375;48.540;9.268;2023-05-09T01:15:54;31.73;;;23.93;;
1344;SDS011;15375;48.540;9.268;2023-05-09T01:21:00;32.50;;;25.40;;
1344;SDS011;15375;48.540;9.268;2023-05-09T01:31:55;42.10;;;28.20;;
1344;SDS011;15375;48.540;9.268;2023-05-09T01:34:21;38.00;;;28.30;;
1344;SDS011;15375;48.540;9.268;2023-05-09T01:36:51;37.07;;;27.37;;
1344;SDS011;15375;48.540;9.268;2023-05-09T01:39:22;35.60;;;28.03;;
1344;SDS011;15375;48.540;9.268;2023-05-09T01:41:49;42.43;;;29.57;;
1344;SDS011;15375;48.540;9.268;2023-05-09T01:44:16;36.73;;;27.37;;
1344;SDS011;15375;48.540;9.268;2023-05-09T01:46:42;36.17;;;26.40;;
1344;SDS011;15375;48.540;9.268;2023-05-09T01:49:08;38.50;;;25.97;;
1344;SDS011;15375;48.540;9.268;2023-05-09T01:51:35;33.90;;;24.70;;
1344;SDS011;15375;48.540;9.268;2023-05-09T01:54:03;36.53;;;24.90;;
1344;SDS011;15375;48.540;9.268;2023-05-09T01:56:30;41.07;;;25.00;;
1344;SDS011;15375;48.540;9.268;2023-05-09T01:58:56;38.17;;;25.80;;
1344;SDS011;15375;48.540;9.268;2023-05-09T02:01:24;28.70;;;21.90;;
1344;SDS011;15375;48.540;9.268;2023-05-09T02:03:50;34.93;;;23.07;;
1344;SDS011;15375;48.540;9.268;2023-05-09T02:06:19;34.27;;;24.33;;
1344;SDS011;15375;48.540;9.268;2023-05-09T02:08:46;33.07;;;24.23;;
1344;SDS011;15375;48.540;9.268;2023-05-09T02:11:12;31.20;;;23.20;;
1344;SDS011;15375;48.540;9.268;2023-05-09T02:13:38;43.80;;;23.83;;
1344;SDS011;15375;48.540;9.268;2023-05-09T02:16:04;34.90;;;23.10;;
1344;SDS011;15375;48.540;9.268;2023-05-09T02:18:31;42.67;;;24.13;;
1344;SDS011;15375;48.540;9.268;2023-05-09T02:20:58;33.63;;;23.07;;
1344;SDS011;15375;48.540;9.268;2023-05-09T02:23:23;36.47;;;23.87;;
1344;SDS011;15375;48.540;9.268;2023-05-09T02:25:49;34.90;;;23.70;;
1344;SDS011;15375;48.540;9.268;2023-05-09T02:28:14;31.87;;;23.13;;
1344;SDS011;15375;48.540;9.268;2023-05-09T02:30:43;40.37;;;26.30;;
1344;SDS011;15375;48.540;9.268;2023-05-09T02:33:11;33.63;;;25.13;;
1344;SDS011;15375;48.540;9.268;2023-05-09T02:35:38;32.27;;;24.07;;
1344;SDS011;15375;48.540;9.268;2023-05-09T02:38:06;32.10;;;25.17;;
1344;SDS011;15375;48.540;9.268;2023-05-09T02:40:32;35.37;;;24.43;;
1344;SDS011;15375;48.540;9.268;2023-05-09T02:42:58;35.93;;;24.57;;
1344;SDS011;15375;48.540;9.268;2023-05-09T02:45:23;38.30;;;26.50;;
1344;SDS011;15375;48.540;9.268;2023-05-09T02:47:49;35.77;;;25.57;;
1344;SDS011;15375;48.540;9.268;2023-05-09T02:50:14;32.27;;;24.10;;
1344;SDS011;15375;48.540;9.268;2023-05-09T02:52:39;34.80;;;24.90;;
1344;SDS011;15375;48.540;9.268;2023-05-09T02:55:05;32.53;;;22.30;;
1344;SDS011;15375;48.540;9.268;2023-05-09T02:57:31;28.87;;;21.47;;
1344;SDS011;15375;48.540;9.268;2023-05-09T02:59:57;30.60;;;24.20;;
1344;SDS011;15375;48.540;9.268;2023-05-09T03:02:22;34.40;;;25.43;;
1344;SDS011;15375;48.540;9.268;2023-05-09T03:04:48;27.93;;;21.10;;
1344;SDS011;15375;48.540;9.268;2023-05-09T03:07:13;28.70;;;21.37;;
1344;SDS011;15375;48.540;9.268;2023-05-09T03:09:39;31.17;;;22.83;;
1344;SDS011;15375;48.540;9.268;2023-05-09T03:12:04;31.93;;;22.50;;
1344;SDS011;15375;48.540;9.268;2023-05-09T03:14:30;26.03;;;20.00;;
1344;SDS011;15375;48.540;9.268;2023-05-09T03:16:55;32.57;;;21.60;;
1344;SDS011;15375;48.540;9.268;2023-05-09T03:19:21;27.07;;;20.13;;
1344;SDS011;15375;48.540;9.268;2023-05-09T03:21:46;31.93;;;20.70;;
1344;SDS011;15375;48.540;9.268;2023-05-09T03:24:11;28.73;;;19.83;;
1344;SDS011;15375;48.540;9.268;2023-05-09T03:26:37;29.83;;;22.37;;
1344;SDS011;15375;48.540;9.268;2023-05-09T03:29:02;27.33;;;20.93;;
1344;SDS011;15375;48.540;9.268;2023-05-09T03:31:28;25.37;;;20.73;;
1344;SDS011;15375;48.540;9.268;2023-05-09T03:33:53;30.13;;;18.87;;
1344;SDS011;15375;48.540;9.268;2023-05-09T03:36:19;28.17;;;21.40;;
1344;SDS011;15375;48.540;9.268;2023-05-09T03:38:44;26.87;;;21.10;;
1344;SDS011;15375;48.540;9.268;2023-05-09T03:41:11;30.17;;;21.80;;
1344;SDS011;15375;48.540;9.268;2023-05-09T03:43:37;27.43;;;20.47;;
1344;SDS011;15375;48.540;9.268;2023-05-09T03:46:02;27.60;;;20.87;;
1344;SDS011;15375;48.540;9.268;2023-05-09T03:48:28;29.97;;;21.70;;
1344;SDS011;15375;48.540;9.268;2023-05-09T03:50:53;26.77;;;21.20;;
1344;SDS011;15375;48.540;9.268;2023-05-09T03:53:19;39.93;;;24.63;;
1344;SDS011;15375;48.540;9.268;2023-05-09T03:55:44;31.97;;;24.13;;
1344;SDS011;15375;48.540;9.268;2023-05-09T03:58:10;33.27;;;25.73;;
1344;SDS011;15375;48.540;9.268;2023-05-09T04:00:36;32.87;;;23.80;;
1344;SDS011;15375;48.540;9.268;2023-05-09T04:03:01;28.03;;;21.93;;
1344;SDS011;15375;48.540;9.268;2023-05-09T04:05:28;30.47;;;21.23;;
1344;SDS011;15375;48.540;9.268;2023-05-09T04:07:53;32.47;;;23.03;;
1344;SDS011;15375;48.540;9.268;2023-05-09T04:10:19;21.63;;;19.00;;
1344;SDS011;15375;48.540;9.268;2023-05-09T04:12:44;25.70;;;20.67;;
1344;SDS011;15375;48.540;9.268;2023-05-09T04:15:10;26.97;;;19.97;;
1344;SDS011;15375;48.540;9.268;2023-05-09T04:17:35;32.83;;;21.23;;
1344;SDS011;15375;48.540;9.268;2023-05-09T04:20:00;20.20;;;16.90;;
1344;SDS011;15375;48.540;9.268;2023-05-09T04:22:27;22.80;;;18.13;;
1344;SDS011;15375;48.540;9.268;2023-05-09T04:24:52;19.83;;;16.40;;
1344;SDS011;15375;48.540;9.268;2023-05-09T04:27:18;24.10;;;15.63;;
1344;SDS011;15375;48.540;9.268;2023-05-09T04:29:43;18.40;;;14.13;;
1344;SDS011;15375;48.540;9.268;2023-05-09T04:32:08;23.87;;;15.13;;
1344;SDS011;15375;48.540;9.268;2023-05-09T04:34:34;25.90;;;13.20;;
1344;SDS011;15375;48.540;9.268;2023-05-09T04:36:59;17.80;;;12.67;;
1344;SDS011;15375;48.540;9.268;2023-05-09T04:39:25;42.30;;;13.00;;
1344;SDS011;15375;48.540;9.268;2023-05-09T04:41:50;22.63;;;12.03;;
1344;SDS011;15375;48.540;9.268;2023-05-09T04:44:16;15.73;;;12.33;;
1344;SDS011;15375;48.540;9.268;2023-05-09T04:46:42;18.30;;;12.13;;
1344;SDS011;15375;48.540;9.268;2023-05-09T04:49:08;17.40;;;11.17;;
1344;SDS011;15375;48.540;9.268;2023-05-09T04:51:33;18.40;;;12.83;;
1344;SDS011;15375;48.540;9.268;2023-05-09T04:53:58;14.47;;;11.03;;
1344;SDS011;15375;48.540;9.268;2023-05-09T04:56:26;11.37;;;10.27;;
1344;SDS011;15375;48.540;9.268;2023-05-09T04:58:51;11.87;;;10.53;;
1344;SDS011;15375;48.540;9.268;2023-05-09T05:01:17;13.77;;;12.37;;
1344;SDS011;15375;48.540;9.268;2023-05-09T05:03:42;13.33;;;11.93;;
1344;SDS011;15375;48.540;9.268;2023-05-09T05:06:08;13.93;;;12.17;;
1344;SDS011;15375;48.540;9.268;2023-05-09T05:08:33;12.70;;;11.40;;
1344;SDS011;15375;48.540;9.268;2023-05-09T05:10:59;12.73;;;11.33;;
1344;SDS011;15375;48.540;9.268;2023-05-09T05:13:24;10.63;;;9.30;;
1344;SDS011;15375;48.540;9.268;2023-05-09T05:15:49;9.80;;;8.87;;
1344;SDS011;15375;48.540;9.268;2023-05-09T05:18:15;9.23;;;8.40;;
1344;SDS011;15375;48.540;9.268;2023-05-09T05:20:41;10.40;;;9.40;;
1344;SDS011;15375;48.540;9.268;2023-05-09T05:23:07;9.13;;;8.30;;
1344;SDS011;15375;48.540;9.268;2023-05-09T05:25:32;8.70;;;7.90;;
1344;SDS011;15375;48.540;9.268;2023-05-09T05:27:58;9.30;;;8.47;;
1344;SDS011;15375;48.540;9.268;2023-05-09T05:30:23;9.00;;;8.20;;
1344;SDS011;15375;48.540;9.268;2023-05-09T05:32:48;9.97;;;8.50;;
1344;SDS011;15375;48.540;9.268;2023-05-09T05:35:14;10.07;;;9.07;;
1344;SDS011;15375;48.540;9.268;2023-05-09T05:37:39;11.03;;;9.93;;
1344;SDS011;15375;48.540;9.268;2023-05-09T05:40:05;10.23;;;9.23;;
1344;SDS011;15375;48.540;9.268;2023-05-09T05:42:32;13.50;;;10.17;;
1344;SDS011;15375;48.540;9.268;2023-05-09T05:44:58;11.00;;;9.90;;
1344;SDS011;15375;48.540;9.268;2023-05-09T05:47:34;11.20;;;9.90;;
1344;SDS011;15375;48.540;9.268;2023-05-09T05:50:01;12.03;;;10.93;;
1344;SDS011;15375;48.540;9.268;2023-05-09T05:52:28;12.33;;;11.00;;
1344;SDS011;15375;48.540;9.268;2023-05-09T05:54:53;14.00;;;12.50;;
1344;SDS011;15375;48.540;9.268;2023-05-09T05:57:19;16.00;;;12.07;;
1344;SDS011;15375;48.540;9.268;2023-05-09T05:59:50;15.63;;;14.00;;
1344;SDS011;15375;48.540;9.268;2023-05-09T06:02:16;14.07;;;12.67;;
1344;SDS011;15375;48.540;9.268;2023-05-09T06:04:42;13.53;;;12.20;;
1344;SDS011;15375;48.540;9.268;2023-05-09T06:07:08;16.70;;;13.53;;
1344;SDS011;15375;48.540;9.268;2023-05-09T06:09:34;15.70;;;14.00;;
1344;SDS011;15375;48.540;9.268;2023-05-09T06:11:59;18.00;;;13.07;;
1344;SDS011;15375;48.540;9.268;2023-05-09T06:14:25;12.00;;;10.80;;
1344;SDS011;15375;48.540;9.268;2023-05-09T06:16:50;12.40;;;11.20;;
1344;SDS011;15375;48.540;9.268;2023-05-09T06:19:16;13.20;;;11.90;;
1344;SDS011;15375;48.540;9.268;2023-05-09T06:21:41;11.40;;;10.30;;
1344;SDS011;15375;48.540;9.268;2023-05-09T06:24:07;12.20;;;11.00;;
1344;SDS011;15375;48.540;9.268;2023-05-09T06:26:32;11.10;;;10.00;;
1344;SDS011;15375;48.540;9.268;2023-05-09T06:28:58;12.97;;;9.50;;
1344;SDS011;15375;48.540;9.268;2023-05-09T06:31:23;10.50;;;9.50;;
1344;SDS011;15375;48.540;9.268;2023-05-09T06:33:48;15.10;;;11.40;;
1344;SDS011;15375;48.540;9.268;2023-05-09T06:36:14;13.30;;;12.17;;
1344;SDS011;15375;48.540;9.268;2023-05-09T06:38:40;13.20;;;11.90;;
1344;SDS011;15375;48.540;9.268;2023-05-09T06:41:05;11.90;;;10.70;;
1344;SDS011;15375;48.540;9.268;2023-05-09T06:43:30;11.30;;;10.37;;
1344;SDS011;15375;48.540;9.268;2023-05-09T06:45:56;11.40;;;10.47;;
1344;SDS011;15375;48.540;9.268;2023-05-09T06:48:21;11.43;;;10.50;;
1344;SDS011;15375;48.540;9.268;2023-05-09T06:50:49;12.90;;;11.80;;
1344;SDS011;15375;48.540;9.268;2023-05-09T06:53:14;15.13;;;11.90;;
1344;SDS011;15375;48.540;9.268;2023-05-09T06:55:40;12.10;;;11.10;;
1344;SDS011;15375;48.540;9.268;2023-05-09T06:58:06;12.57;;;11.47;;
1344;SDS011;15375;48.540;9.268;2023-05-09T07:00:32;12.50;;;11.50;;
1344;SDS011;15375;48.540;9.268;2023-05-09T07:02:57;12.13;;;11.17;;
1344;SDS011;15375;48.540;9.268;2023-05-09T07:05:22;11.33;;;10.43;;
1344;SDS011;15375;48.540;9.268;2023-05-09T07:07:48;13.20;;;12.03;;
1344;SDS011;15375;48.540;9.268;2023-05-09T07:10:13;13.60;;;12.40;;
1344;SDS011;15375;48.540;9.268;2023-05-09T07:12:39;14.23;;;12.83;;
1344;SDS011;15375;48.540;9.268;2023-05-09T07:15:04;14.37;;;12.83;;
1344;SDS011;15375;48.540;9.268;2023-05-09T07:17:30;13.40;;;12.03;;
1344;SDS011;15375;48.540;9.268;2023-05-09T07:19:56;16.20;;;14.70;;
1344;SDS011;15375;48.540;9.268;2023-05-09T07:22:21;15.90;;;14.40;;
1344;SDS011;15375;48.540;9.268;2023-05-09T07:24:47;15.13;;;13.83;;
1344;SDS011;15375;48.540;9.268;2023-05-09T07:27:12;17.27;;;15.60;;
1344;SDS011;15375;48.540;9.268;2023-05-09T07:29:38;17.80;;;16.10;;
1344;SDS011;15375;48.540;9.268;2023-05-09T07:32:03;16.63;;;15.07;;
1344;SDS011;15375;48.540;9.268;2023-05-09T07:34:29;20.13;;;18.13;;
1344;SDS011;15375;48.540;9.268;2023-05-09T07:36:54;21.20;;;19.10;;
1344;SDS011;15375;48.540;9.268;2023-05-09T07:39:19;20.57;;;18.47;;
1344;SDS011;15375;48.540;9.268;2023-05-09T07:41:45;18.77;;;16.97;;
1344;SDS011;15375;48.540;9.268;2023-05-09T07:44:10;19.70;;;17.80;;
1344;SDS011;15375;48.540;9.268;2023-05-09T07:46:36;19.50;;;16.30;;
1344;SDS011;15375;48.540;9.268;2023-05-09T07:49:02;19.27;;;17.37;;
1344;SDS011;15375;48.540;9.268;2023-05-09T07:51:28;19.10;;;17.20;;
1344;SDS011;15375;48.540;9.268;2023-05-09T07:53:53;17.80;;;16.00;;
1344;SDS011;15375;48.540;9.268;2023-05-09T07:56:21;17.60;;;15.90;;
1344;SDS011;15375;48.540;9.268;2023-05-09T07:58:47;19.87;;;17.87;;
1344;SDS011;15375;48.540;9.268;2023-05-09T08:01:12;17.80;;;15.93;;
1344;SDS011;15375;48.540;9.268;2023-05-09T08:03:38;19.20;;;16.50;;
1344;SDS011;15375;48.540;9.268;2023-05-09T08:06:03;17.77;;;16.07;;
1344;SDS011;15375;48.540;9.268;2023-05-09T08:08:28;17.07;;;15.37;;
1344;SDS011;15375;48.540;9.268;2023-05-09T08:10:54;17.13;;;14.70;;
1344;SDS011;15375;48.540;9.268;2023-05-09T08:13:20;17.43;;;15.10;;
1344;SDS011;15375;48.540;9.268;2023-05-09T08:15:46;15.87;;;14.37;;
1344;SDS011;15375;48.540;9.268;2023-05-09T08:18:12;17.93;;;16.30;;
1344;SDS011;15375;48.540;9.268;2023-05-09T08:20:37;15.87;;;14.37;;
1344;SDS011;15375;48.540;9.268;2023-05-09T08:23:02;16.83;;;15.27;;
1344;SDS011;15375;48.540;9.268;2023-05-09T08:25:28;15.83;;;14.33;;
1344;SDS011;15375;48.540;9.268;2023-05-09T08:27:53;16.60;;;14.90;;
1344;SDS011;15375;48.540;9.268;2023-05-09T08:30:19;15.90;;;14.30;;
1344;SDS011;15375;48.540;9.268;2023-05-09T08:32:44;15.40;;;13.80;;
1344;SDS011;15375;48.540;9.268;2023-05-09T08:35:09;15.30;;;13.73;;
1344;SDS011;15375;48.540;9.268;2023-05-09T08:37:35;15.63;;;14.13;;
1344;SDS011;15375;48.540;9.268;2023-05-09T08:40:01;13.60;;;12.20;;
1344;SDS011;15375;48.540;9.268;2023-05-09T08:42:32;15.10;;;13.50;;
1344;SDS011;15375;48.540;9.268;2023-05-09T08:45:04;12.70;;;11.40;;
1344;SDS011;15375;48.540;9.268;2023-05-09T08:47:34;14.30;;;11.97;;
1344;SDS011;15375;48.540;9.268;2023-05-09T08:50:01;13.13;;;11.67;;
1344;SDS011;15375;48.540;9.268;2023-05-09T08:52:29;11.87;;;10.77;;
1344;SDS011;15375;48.540;9.268;2023-05-09T08:54:56;12.40;;;10.47;;
1344;SDS011;15375;48.540;9.268;2023-05-09T08:57:21;19.93;;;11.77;;
1344;SDS011;15375;48.540;9.268;2023-05-09T08:59:47;15.03;;;12.23;;
1344;SDS011;15375;48.540;9.268;2023-05-09T09:02:13;18.03;;;12.40;;
1344;SDS011;15375;48.540;9.268;2023-05-09T09:04:39;11.70;;;10.50;;
1344;SDS011;15375;48.540;9.268;2023-05-09T09:07:05;12.23;;;11.03;;
1344;SDS011;15375;48.540;9.268;2023-05-09T09:09:32;12.97;;;11.03;;
1344;SDS011;15375;48.540;9.268;2023-05-09T09:12:00;12.53;;;11.13;;
1344;SDS011;15375;48.540;9.268;2023-05-09T09:14:30;12.73;;;10.97;;
1344;SDS011;15375;48.540;9.268;2023-05-09T09:17:01;11.73;;;10.53;;
1344;SDS011;15375;48.540;9.268;2023-05-09T09:19:30;12.13;;;10.57;;
1344;SDS011;15375;48.540;9.268;2023-05-09T09:21:58;12.43;;;11.23;;
1344;SDS011;15375;48.540;9.268;2023-05-09T09:24:25;12.67;;;11.47;;
1344;SDS011;15375;48.540;9.268;2023-05-09T09:26:51;11.80;;;10.70;;
1344;SDS011;15375;48.540;9.268;2023-05-09T09:29:17;10.83;;;9.83;;
1344;SDS011;15375;48.540;9.268;2023-05-09T09:31:44;13.53;;;9.70;;
1344;SDS011;15375;48.540;9.268;2023-05-09T09:34:11;10.00;;;9.00;;
1344;SDS011;15375;48.540;9.268;2023-05-09T09:36:38;10.93;;;9.83;;
1344;SDS011;15375;48.540;9.268;2023-05-09T09:39:04;9.97;;;8.07;;
1344;SDS011;15375;48.540;9.268;2023-05-09T09:43:56;8.33;;;7.53;;
1344;SDS011;15375;48.540;9.268;2023-05-09T09:46:22;8.20;;;7.50;;
1344;SDS011;15375;48.540;9.268;2023-05-09T09:48:48;8.03;;;7.23;;
1344;SDS011;15375;48.540;9.268;2023-05-09T09:51:16;8.40;;;7.60;;
1344;SDS011;15375;48.540;9.268;2023-05-09T09:53:42;7.50;;;6.70;;
1344;SDS011;15375;48.540;9.268;2023-05-09T09:56:08;7.67;;;6.97;;
1344;SDS011;15375;48.540;9.268;2023-05-09T09:58:34;7.70;;;7.00;;
1344;SDS011;15375;48.540;9.268;2023-05-09T10:01:03;11.23;;;7.80;;
1344;SDS011;15375;48.540;9.268;2023-05-09T10:03:37;7.23;;;6.37;;
1344;SDS011;15375;48.540;9.268;2023-05-09T10:06:03;8.07;;;6.93;;
1344;SDS011;15375;48.540;9.268;2023-05-09T10:08:28;9.07;;;7.43;;
1344;SDS011;15375;48.540;9.268;2023-05-09T10:10:54;8.33;;;7.33;;
1344;SDS011;15375;48.540;9.268;2023-05-09T10:13:19;9.03;;;7.43;;
1344;SDS011;15375;48.540;9.268;2023-05-09T10:15:45;7.67;;;6.97;;
1344;SDS011;15375;48.540;9.268;2023-05-09T10:18:11;8.10;;;7.10;;
1344;SDS011;15375;48.540;9.268;2023-05-09T10:20:42;8.20;;;7.30;;
1344;SDS011;15375;48.540;9.268;2023-05-09T10:23:08;7.13;;;6.43;;
1344;SDS011;15375;48.540;9.268;2023-05-09T10:25:39;8.40;;;6.70;;
1344;SDS011;15375;48.540;9.268;2023-05-09T10:28:11;7.00;;;6.33;;
1344;SDS011;15375;48.540;9.268;2023-05-09T10:33:36;6.63;;;6.00;;
1344;SDS011;15375;48.540;9.268;2023-05-09T10:36:07;6.00;;;5.50;;
1344;SDS011;15375;48.540;9.268;2023-05-09T10:38:34;7.80;;;4.80;;
1344;SDS011;15375;48.540;9.268;2023-05-09T10:41:01;5.93;;;5.30;;
1344;SDS011;15375;48.540;9.268;2023-05-09T10:43:27;4.70;;;4.30;;
1344;SDS011;15375;48.540;9.268;2023-05-09T10:45:54;5.67;;;5.17;;
1344;SDS011;15375;48.540;9.268;2023-05-09T10:48:19;4.80;;;4.30;;
1344;SDS011;15375;48.540;9.268;2023-05-09T10:50:46;4.13;;;3.83;;
1344;SDS011;15375;48.540;9.268;2023-05-09T10:53:12;6.57;;;4.17;;
1344;SDS011;15375;48.540;9.268;2023-05-09T11:00:48;3.53;;;3.23;;
1344;SDS011;15375;48.540;9.268;2023-05-09T11:03:15;4.47;;;3.97;;
1344;SDS011;15375;48.540;9.268;2023-05-09T11:05:43;4.70;;;3.70;;
1344;SDS011;15375;48.540;9.268;2023-05-09T11:08:19;4.50;;;4.10;;
1344;SDS011;15375;48.540;9.268;2023-05-09T11:10:49;5.07;;;4.63;;
1344;SDS011;15375;48.540;9.268;2023-05-09T11:13:19;7.43;;;4.07;;
1344;SDS011;15375;48.540;9.268;2023-05-09T11:18:28;5.03;;;4.20;;
1344;SDS011;15375;48.540;9.268;2023-05-09T11:20:55;3.70;;;3.40;;
1344;SDS011;15375;48.540;9.268;2023-05-09T11:23:21;4.93;;;3.80;;
1344;SDS011;15375;48.540;9.268;2023-05-09T11:25:50;3.57;;;3.37;;
1344;SDS011;15375;48.540;9.268;2023-05-09T11:28:28;3.80;;;3.50;;
1344;SDS011;15375;48.540;9.268;2023-05-09T11:33:50;4.63;;;3.00;;
1344;SDS011;15375;48.540;9.268;2023-05-09T11:39:00;3.67;;;3.37;;
1344;SDS011;15375;48.540;9.268;2023-05-09T11:41:27;4.30;;;3.97;;
1344;SDS011;15375;48.540;9.268;2023-05-09T11:43:53;4.23;;;3.10;;
1344;SDS011;15375;48.540;9.268;2023-05-09T11:46:20;2.60;;;2.40;;
1344;SDS011;15375;48.540;9.268;2023-05-09T11:48:45;4.20;;;3.60;;
1344;SDS011;15375;48.540;9.268;2023-05-09T11:51:16;3.70;;;3.43;;
1344;SDS011;15375;48.540;9.268;2023-05-09T11:53:43;5.30;;;3.47;;
1344;SDS011;15375;48.540;9.268;2023-05-09T11:56:10;3.33;;;3.03;;
1344;SDS011;15375;48.540;9.268;2023-05-09T11:58:37;2.70;;;2.50;;
1344;SDS011;15375;48.540;9.268;2023-05-09T12:01:03;3.03;;;2.73;;
1344;SDS011;15375;48.540;9.268;2023-05-09T12:03:29;2.97;;;2.80;;
1344;SDS011;15375;48.540;9.268;2023-05-09T12:05:54;3.70;;;3.40;;
1344;SDS011;15375;48.540;9.268;2023-05-09T12:08:20;3.70;;;3.40;;
1344;SDS011;15375;48.540;9.268;2023-05-09T12:10:47;4.90;;;3.00;;
1344;SDS011;15375;48.540;9.268;2023-05-09T12:13:13;2.60;;;2.40;;
1344;SDS011;15375;48.540;9.268;2023-05-09T12:15:39;3.43;;;3.13;;
1344;SDS011;15375;48.540;9.268;2023-05-09T12:18:05;3.10;;;2.60;;
1344;SDS011;15375;48.540;9.268;2023-05-09T12:20:39;3.43;;;3.13;;
1344;SDS011;15375;48.540;9.268;2023-05-09T12:23:04;4.03;;;2.70;;
1344;SDS011;15375;48.540;9.268;2023-05-09T12:25:30;3.07;;;2.87;;
1344;SDS011;15375;48.540;9.268;2023-05-09T12:27:56;2.83;;;2.53;;
1344;SDS011;15375;48.540;9.268;2023-05-09T12:30:21;3.63;;;2.70;;
1344;SDS011;15375;48.540;9.268;2023-05-09T12:32:46;4.97;;;3.03;;
1344;SDS011;15375;48.540;9.268;2023-05-09T12:35:12;3.07;;;2.87;;
1344;SDS011;15375;48.540;9.268;2023-05-09T12:37:38;3.40;;;2.97;;
1344;SDS011;15375;48.540;9.268;2023-05-09T12:40:04;4.40;;;2.67;;
1344;SDS011;15375;48.540;9.268;2023-05-09T12:42:31;2.70;;;2.50;;
1344;SDS011;15375;48.540;9.268;2023-05-09T12:44:59;7.77;;;2.47;;
1344;SDS011;15375;48.540;9.268;2023-05-09T12:47:26;3.80;;;2.50;;
1344;SDS011;15375;48.540;9.268;2023-05-09T12:50:03;2.60;;;2.40;;
1344;SDS011;15375;48.540;9.268;2023-05-09T12:52:37;3.70;;;3.40;;
1344;SDS011;15375;48.540;9.268;2023-05-09T12:55:05;3.20;;;2.90;;
1344;SDS011;15375;48.540;9.268;2023-05-09T12:57:31;3.07;;;2.77;;
1344;SDS011;15375;48.540;9.268;2023-05-09T13:00:00;2.63;;;2.43;;
1344;SDS011;15375;48.540;9.268;2023-05-09T13:02:32;2.67;;;2.47;;
1344;SDS011;15375;48.540;9.268;2023-05-09T13:07:38;2.60;;;2.40;;
1344;SDS011;15375;48.540;9.268;2023-05-09T13:12:37;2.63;;;2.43;;
1344;SDS011;15375;48.540;9.268;2023-05-09T13:15:03;3.13;;;2.93;;
1344;SDS011;15375;48.540;9.268;2023-05-09T13:17:29;2.80;;;2.60;;
1344;SDS011;15375;48.540;9.268;2023-05-09T13:19:54;3.47;;;3.00;;
1344;SDS011;15375;48.540;9.268;2023-05-09T13:22:19;2.73;;;2.53;;
1344;SDS011;15375;48.540;9.268;2023-05-09T13:24:45;6.50;;;3.20;;
1344;SDS011;15375;48.540;9.268;2023-05-09T13:27:10;3.40;;;3.00;;
1344;SDS011;15375;48.540;9.268;2023-05-09T13:29:37;5.93;;;3.70;;
1344;SDS011;15375;48.540;9.268;2023-05-09T13:32:02;4.47;;;3.10;;
1344;SDS011;15375;48.540;9.268;2023-05-09T13:34:28;5.00;;;2.90;;
1344;SDS011;15375;48.540;9.268;2023-05-09T13:36:53;3.53;;;3.30;;
1344;SDS011;15375;48.540;9.268;2023-05-09T13:39:18;4.40;;;2.73;;
1344;SDS011;15375;48.540;9.268;2023-05-09T13:41:44;3.57;;;3.20;;
1344;SDS011;15375;48.540;9.268;2023-05-09T13:44:09;3.10;;;2.90;;
1344;SDS011;15375;48.540;9.268;2023-05-09T13:46:35;4.00;;;3.03;;
1344;SDS011;15375;48.540;9.268;2023-05-09T13:49:01;3.47;;;3.17;;
1344;SDS011;15375;48.540;9.268;2023-05-09T13:51:26;3.50;;;3.20;;
1344;SDS011;15375;48.540;9.268;2023-05-09T13:53:53;4.60;;;4.03;;
1344;SDS011;15375;48.540;9.268;2023-05-09T13:56:18;3.97;;;3.53;;
1344;SDS011;15375;48.540;9.268;2023-05-09T13:58:44;3.20;;;2.90;;
1344;SDS011;15375;48.540;9.268;2023-05-09T14:01:09;5.10;;;3.47;;
1344;SDS011;15375;48.540;9.268;2023-05-09T14:03:35;4.60;;;3.10;;
1344;SDS011;15375;48.540;9.268;2023-05-09T14:06:00;3.83;;;3.53;;
1344;SDS011;15375;48.540;9.268;2023-05-09T14:08:26;4.13;;;3.70;;
1344;SDS011;15375;48.540;9.268;2023-05-09T14:10:51;2.97;;;2.77;;
1344;SDS011;15375;48.540;9.268;2023-05-09T14:13:17;3.87;;;3.50;;
1344;SDS011;15375;48.540;9.268;2023-05-09T14:15:43;3.50;;;3.20;;
1344;SDS011;15375;48.540;9.268;2023-05-09T14:18:08;3.40;;;3.10;;
1344;SDS011;15375;48.540;9.268;2023-05-09T14:20:33;3.63;;;2.87;;
1344;SDS011;15375;48.540;9.268;2023-05-09T14:23:01;4.90;;;3.40;;
1344;SDS011;15375;48.540;9.268;2023-05-09T14:25:26;3.03;;;2.83;;
1344;SDS011;15375;48.540;9.268;2023-05-09T14:27:52;2.97;;;2.67;;
1344;SDS011;15375;48.540;9.268;2023-05-09T14:30:18;3.47;;;3.17;;
1344;SDS011;15375;48.540;9.268;2023-05-09T14:32:43;2.97;;;2.77;;
1344;SDS011;15375;48.540;9.268;2023-05-09T14:35:09;3.40;;;3.10;;
1344;SDS011;15375;48.540;9.268;2023-05-09T14:37:34;2.83;;;2.63;;
1344;SDS011;15375;48.540;9.268;2023-05-09T14:40:00;4.20;;;3.43;;
1344;SDS011;15375;48.540;9.268;2023-05-09T14:42:29;3.37;;;3.07;;
1344;SDS011;15375;48.540;9.268;2023-05-09T14:44:55;3.63;;;2.87;;
1344;SDS011;15375;48.540;9.268;2023-05-09T14:47:21;2.60;;;2.40;;
1344;SDS011;15375;48.540;9.268;2023-05-09T14:49:47;5.07;;;2.93;;
1344;SDS011;15375;48.540;9.268;2023-05-09T14:52:12;2.60;;;2.40;;
1344;SDS011;15375;48.540;9.268;2023-05-09T14:54:38;3.10;;;2.80;;
1344;SDS011;15375;48.540;9.268;2023-05-09T14:57:03;5.63;;;2.37;;
1344;SDS011;15375;48.540;9.268;2023-05-09T14:59:30;2.53;;;2.33;;
1344;SDS011;15375;48.540;9.268;2023-05-09T15:01:56;2.90;;;2.27;;
1344;SDS011;15375;48.540;9.268;2023-05-09T15:04:22;2.30;;;2.20;;
1344;SDS011;15375;48.540;9.268;2023-05-09T15:06:52;2.60;;;2.40;;
1344;SDS011;15375;48.540;9.268;2023-05-09T15:09:17;2.90;;;2.50;;
1344;SDS011;15375;48.540;9.268;2023-05-09T15:11:43;2.70;;;2.50;;
1344;SDS011;15375;48.540;9.268;2023-05-09T15:14:10;2.17;;;2.00;;
1344;SDS011;15375;48.540;9.268;2023-05-09T15:16:36;3.30;;;2.80;;
1344;SDS011;15375;48.540;9.268;2023-05-09T15:19:03;2.33;;;2.13;;
1344;SDS011;15375;48.540;9.268;2023-05-09T15:21:28;2.10;;;2.00;;